Time;durP1;ratioP1;P1;durP2;ratioP2;P2;SDS_P1;SDS_P2;PMS_P1;PMS_P2;Temp;Humidity;BMP_temperature;BMP_pressure;BME280_temperature;BME280_humidity;BME280_pressure;Samples;Min_cycle;Max_cycle;Signal;HPM_P1;HPM_P2
2022/07/12 00:02:16;;;;;;;2.80;2.23;;;;;;;13.53;100.00;96970.88;5078234;28;20436;-70
2022/07/12 00:04:43;;;;;;;2.60;2.40;;;;;;;13.41;100.00;96968.19;5066781;28;20499;-70
2022/07/12 00:07:10;;;;;;;2.50;2.30;;;;;;;13.30;100.00;96978.44;5073666;28;21018;-70
2022/07/12 00:09:37;;;;;;;2.20;2.07;;;;;;;13.25;100.00;96968.03;5079764;28;20469;-71
2022/07/12 00:12:04;;;;;;;2.97;2.70;;;;;;;13.46;100.00;96986.56;5066546;28;20429;-70
2022/07/12 00:14:31;;;;;;;3.23;2.47;;;;;;;13.51;100.00;96983.72;5063335;28;20427;-70
2022/07/12 00:16:58;;;;;;;2.20;2.00;;;;;;;13.29;100.00;96966.25;5076414;28;20459;-70
2022/07/12 00:19:24;;;;;;;2.77;2.57;;;;;;;13.47;100.00;96988.09;5090051;28;20466;-70
2022/07/12 00:21:51;;;;;;;2.10;2.00;;;;;;;13.31;100.00;96987.97;5059871;28;20427;-70
2022/07/12 00:24:18;;;;;;;2.63;2.00;;;;;;;13.27;100.00;96973.78;5089856;28;20464;-70
2022/07/12 00:26:45;;;;;;;2.40;2.20;;;;;;;13.33;100.00;96963.72;5076373;28;20798;-70
2022/07/12 00:29:12;;;;;;;1.67;1.57;;;;;;;13.42;100.00;96982.25;5089956;28;20450;-70
2022/07/12 00:31:38;;;;;;;2.47;2.27;;;;;;;13.21;100.00;96951.19;5059823;28;20436;-70
2022/07/12 00:34:05;;;;;;;2.20;2.00;;;;;;;13.48;100.00;96991.53;5081893;28;20928;-70
2022/07/12 00:36:32;;;;;;;2.13;2.03;;;;;;;13.26;100.00;96971.47;5069580;28;20523;-70
2022/07/12 00:38:59;;;;;;;1.73;1.63;;;;;;;13.29;100.00;96990.16;5061353;28;20504;-70
2022/07/12 00:41:25;;;;;;;2.07;1.87;;;;;;;13.40;100.00;96966.63;5059573;28;20480;-70
2022/07/12 00:43:52;;;;;;;2.20;2.00;;;;;;;13.64;100.00;96989.06;5061211;28;20524;-70
2022/07/12 00:46:23;;;;;;;2.30;1.87;;;;;;;13.36;100.00;96963.09;5078036;28;20555;-70
2022/07/12 00:48:50;;;;;;;1.93;1.73;;;;;;;13.52;100.00;96985.25;5078477;28;20458;-70
2022/07/12 00:51:18;;;;;;;2.00;1.80;;;;;;;13.42;100.00;96966.31;5059579;28;20912;-70
2022/07/12 00:53:46;;;;;;;1.73;1.63;;;;;;;13.38;100.00;96999.94;5079920;28;20444;-70
2022/07/12 00:56:14;;;;;;;1.57;1.47;;;;;;;13.26;100.00;96988.16;5084302;28;20904;-70
2022/07/12 00:58:41;;;;;;;1.93;1.70;;;;;;;13.31;100.00;96992.50;5079838;28;20439;-70
2022/07/12 01:01:09;;;;;;;2.50;1.30;;;;;;;13.32;100.00;96986.84;5059447;28;20870;-70
2022/07/12 01:03:37;;;;;;;1.53;1.43;;;;;;;13.22;100.00;96983.81;5078816;28;20432;-70
2022/07/12 01:06:04;;;;;;;2.13;1.50;;;;;;;13.18;100.00;96986.34;5083062;28;21130;-70
2022/07/12 01:08:32;;;;;;;1.77;1.67;;;;;;;13.36;100.00;96983.56;5075135;28;20453;-70
2022/07/12 01:11:01;;;;;;;1.57;1.47;;;;;;;13.38;100.00;96978.69;5081863;28;20459;-70
2022/07/12 01:13:29;;;;;;;1.83;1.73;;;;;;;13.38;100.00;96991.97;5081149;28;20473;-70
2022/07/12 01:15:56;;;;;;;1.47;1.37;;;;;;;13.17;100.00;96941.50;5061732;28;20487;-70
2022/07/12 01:18:25;;;;;;;1.93;1.83;;;;;;;13.24;100.00;96955.09;5064263;28;20488;-70
2022/07/12 01:20:53;;;;;;;1.53;1.43;;;;;;;13.25;100.00;96956.63;5059526;28;20535;-70
2022/07/12 01:23:22;;;;;;;2.00;1.90;;;;;;;13.37;100.00;96977.91;5085915;28;20444;-70
2022/07/12 01:25:48;;;;;;;2.50;1.90;;;;;;;13.26;100.00;96956.31;5073114;28;20877;-70
2022/07/12 01:28:16;;;;;;;2.50;2.27;;;;;;;13.43;100.00;96983.78;5059546;28;20488;-70
2022/07/12 01:30:43;;;;;;;1.93;1.70;;;;;;;13.29;100.00;96992.06;5076023;28;20517;-70
2022/07/12 01:33:09;;;;;;;2.33;2.13;;;;;;;13.23;100.00;96985.41;5089684;28;20433;-70
2022/07/12 01:35:37;;;;;;;1.90;1.80;;;;;;;13.18;100.00;96986.34;5066206;28;20416;-70
2022/07/12 01:38:03;;;;;;;2.40;2.20;;;;;;;13.27;100.00;96989.72;5093072;28;20443;-70
2022/07/12 01:40:30;;;;;;;2.20;2.00;;;;;;;13.26;100.00;96982.09;5067441;28;20509;-70
2022/07/12 01:42:57;;;;;;;2.37;2.27;;;;;;;13.28;100.00;96987.84;5079165;28;20439;-70
2022/07/12 01:45:24;;;;;;;3.37;1.80;;;;;;;13.19;100.00;96961.34;5085807;28;20839;-70
2022/07/12 01:47:51;;;;;;;1.57;1.40;;;;;;;13.18;100.00;96965.13;5059035;28;20495;-70
2022/07/12 01:50:18;;;;;;;2.40;2.03;;;;;;;13.23;100.00;96982.75;5072454;28;20527;-70
2022/07/12 01:52:45;;;;;;;2.13;1.97;;;;;;;13.14;100.00;96987.31;5073534;28;20431;-70
2022/07/12 01:55:12;;;;;;;2.33;1.70;;;;;;;12.99;100.00;96962.16;5084573;28;20777;-70
2022/07/12 01:57:42;;;;;;;2.10;2.00;;;;;;;12.89;100.00;96981.91;5069038;28;20455;-70
2022/07/12 02:00:10;;;;;;;1.47;1.37;;;;;;;12.86;100.00;96987.09;5082539;28;20422;-70
2022/07/12 02:02:38;;;;;;;1.73;1.63;;;;;;;12.75;100.00;96977.94;5060047;28;21262;-69
2022/07/12 02:05:05;;;;;;;2.10;2.00;;;;;;;12.63;100.00;96981.31;5079623;28;20526;-70
2022/07/12 02:07:32;;;;;;;1.83;1.73;;;;;;;12.54;100.00;96975.28;5069821;28;20448;-71
2022/07/12 02:09:59;;;;;;;2.20;2.00;;;;;;;12.42;100.00;96944.16;5083532;28;20480;-70
2022/07/12 02:12:26;;;;;;;1.77;1.67;;;;;;;12.58;100.00;96990.25;5078846;28;20423;-70
2022/07/12 02:14:52;;;;;;;2.80;1.80;;;;;;;12.47;100.00;96967.06;5083391;28;20479;-70
2022/07/12 02:17:19;;;;;;;1.77;1.67;;;;;;;12.53;100.00;96985.09;5068875;28;20499;-70
2022/07/12 02:19:46;;;;;;;1.60;1.50;;;;;;;12.48;100.00;96984.53;5083640;28;20427;-70
2022/07/12 02:22:13;;;;;;;1.90;1.80;;;;;;;12.46;100.00;96989.38;5092158;28;20471;-70
2022/07/12 02:24:40;;;;;;;1.73;1.60;;;;;;;12.36;100.00;96956.81;5081389;28;20487;-70
2022/07/12 02:27:07;;;;;;;1.60;1.50;;;;;;;12.70;100.00;96986.88;5084989;28;20459;-70
2022/07/12 02:29:35;;;;;;;1.60;1.50;;;;;;;12.59;100.00;96973.22;5061221;28;20476;-70
2022/07/12 02:32:02;;;;;;;1.50;1.40;;;;;;;12.85;100.00;96993.50;5086902;28;20611;-70
2022/07/12 02:34:28;;;;;;;1.50;1.40;;;;;;;12.79;100.00;96992.13;5064052;28;20464;-70
2022/07/12 02:36:55;;;;;;;1.47;1.37;;;;;;;12.67;100.00;96956.44;5075812;28;20550;-70
2022/07/12 02:39:22;;;;;;;1.50;1.40;;;;;;;12.72;100.00;96992.66;5080538;28;20464;-70
2022/07/12 02:41:49;;;;;;;2.23;1.80;;;;;;;12.82;100.00;96988.81;5086448;28;20433;-70
2022/07/12 02:44:16;;;;;;;3.20;1.80;;;;;;;12.69;100.00;97002.03;5084091;28;20428;-70
2022/07/12 02:46:42;;;;;;;1.63;1.53;;;;;;;12.67;100.00;96998.13;5077996;28;20815;-70
2022/07/12 02:49:09;;;;;;;2.53;1.80;;;;;;;12.50;100.00;96972.50;5063210;28;20472;-70
2022/07/12 02:51:36;;;;;;;2.27;2.13;;;;;;;12.66;100.00;96993.91;5071266;28;20417;-69
2022/07/12 02:54:03;;;;;;;1.93;1.63;;;;;;;12.93;100.00;96996.06;5071558;28;20465;-70
2022/07/12 02:56:29;;;;;;;1.47;1.37;;;;;;;12.67;100.00;96959.09;5082650;28;20473;-70
2022/07/12 02:58:56;;;;;;;1.33;1.23;;;;;;;12.81;100.00;96987.25;5092135;28;20444;-70
2022/07/12 03:01:23;;;;;;;2.27;1.80;;;;;;;12.55;100.00;96980.25;5078939;28;20510;-70
2022/07/12 03:03:49;;;;;;;4.30;1.90;;;;;;;12.40;100.00;96976.28;5062289;28;20810;-69
2022/07/12 03:06:16;;;;;;;1.23;1.13;;;;;;;12.24;100.00;96971.88;5084586;28;20995;-70
2022/07/12 03:08:43;;;;;;;1.93;1.83;;;;;;;12.35;100.00;97007.53;5087707;28;20453;-70
2022/07/12 03:11:09;;;;;;;1.73;1.63;;;;;;;12.03;100.00;96982.44;5057303;28;20832;-70
2022/07/12 03:13:36;;;;;;;1.30;1.20;;;;;;;12.29;100.00;96998.22;5083492;28;20430;-70
2022/07/12 03:16:03;;;;;;;1.50;1.40;;;;;;;12.32;100.00;97003.66;5077196;28;20457;-70
2022/07/12 03:18:30;;;;;;;1.47;1.37;;;;;;;12.52;100.00;97019.91;5061332;28;20459;-70
2022/07/12 03:20:57;;;;;;;1.40;1.30;;;;;;;12.33;100.00;96984.00;5072103;28;20879;-70
2022/07/12 03:23:24;;;;;;;1.83;1.37;;;;;;;12.61;100.00;97026.72;5072368;28;20814;-70
2022/07/12 03:25:51;;;;;;;1.60;1.50;;;;;;;12.67;100.00;97022.00;5064272;28;20458;-70
2022/07/12 03:28:17;;;;;;;2.70;1.67;;;;;;;12.48;100.00;96992.50;5067124;28;20547;-70
2022/07/12 03:30:44;;;;;;;1.60;1.50;;;;;;;12.65;100.00;97026.88;5107255;28;20467;-70
2022/07/12 03:33:11;;;;;;;1.67;1.57;;;;;;;12.52;100.00;97023.34;5090787;28;20462;-70
2022/07/12 03:35:37;;;;;;;3.47;1.73;;;;;;;12.54;100.00;96999.91;5063939;28;20432;-70
2022/07/12 03:38:04;;;;;;;1.60;1.50;;;;;;;12.60;100.00;97005.84;5059400;28;20465;-70
2022/07/12 03:40:34;;;;;;;1.80;1.70;;;;;;;12.76;100.00;97030.69;5078753;28;20500;-70
2022/07/12 03:43:01;;;;;;;1.93;1.73;;;;;;;12.69;100.00;97027.78;5076876;28;20443;-70
2022/07/12 03:45:28;;;;;;;2.20;2.00;;;;;;;12.46;100.00;97019.34;5082740;28;20493;-70
2022/07/12 03:47:54;;;;;;;1.50;1.40;;;;;;;12.72;100.00;97035.09;5101995;28;20475;-70
2022/07/12 03:50:21;;;;;;;1.60;1.50;;;;;;;12.49;100.00;97039.91;5073885;28;20530;-70
2022/07/12 03:52:48;;;;;;;2.10;1.90;;;;;;;12.13;100.00;97001.38;5072322;28;20436;-70
2022/07/12 03:55:15;;;;;;;2.20;2.10;;;;;;;12.38;100.00;97031.53;5070058;28;20929;-70
2022/07/12 03:57:42;;;;;;;2.63;1.83;;;;;;;12.08;100.00;97008.75;5083591;28;20487;-70
2022/07/12 04:00:13;;;;;;;2.07;1.80;;;;;;;12.36;100.00;97032.97;5053487;28;20460;-70
2022/07/12 04:02:41;;;;;;;2.10;2.00;;;;;;;12.29;100.00;97033.47;5072109;28;20425;-70
2022/07/12 04:05:09;;;;;;;2.20;2.00;;;;;;;12.28;100.00;97041.72;5090091;28;20435;-70
2022/07/12 04:07:37;;;;;;;2.70;2.50;;;;;;;12.37;100.00;97045.91;5073674;28;20456;-70
2022/07/12 04:10:05;;;;;;;3.00;2.10;;;;;;;12.40;100.00;97037.28;5069840;28;20485;-70
2022/07/12 04:12:32;;;;;;;1.50;1.40;;;;;;;12.33;100.00;97037.03;5071219;28;20460;-70
2022/07/12 04:14:59;;;;;;;1.97;1.87;;;;;;;12.25;100.00;97032.53;5069612;28;20456;-70
2022/07/12 04:17:26;;;;;;;2.00;1.90;;;;;;;12.13;100.00;97003.25;5069667;28;20472;-70
2022/07/12 04:19:52;;;;;;;2.93;2.73;;;;;;;12.07;100.00;96999.25;5059204;28;20473;-70
2022/07/12 04:22:19;;;;;;;2.83;2.63;;;;;;;12.11;100.00;97024.03;5071322;28;20431;-70
2022/07/12 04:24:46;;;;;;;2.33;2.13;;;;;;;12.16;100.00;97015.13;5073089;28;20465;-70
2022/07/12 04:27:13;;;;;;;3.57;2.43;;;;;;;12.11;100.00;97024.03;5077415;28;20512;-70
2022/07/12 04:29:39;;;;;;;2.70;2.50;;;;;;;12.18;100.00;97016.34;5078632;28;20440;-70
2022/07/12 04:32:06;;;;;;;4.20;2.70;;;;;;;12.39;100.00;97037.63;5070861;28;20857;-70
2022/07/12 04:34:33;;;;;;;4.30;2.33;;;;;;;12.38;100.00;97046.66;5082112;28;20476;-70
2022/07/12 04:37:00;;;;;;;3.57;2.90;;;;;;;12.43;100.00;97057.13;5077464;28;20440;-70
2022/07/12 04:39:27;;;;;;;3.17;2.90;;;;;;;12.12;100.00;97022.91;5078420;28;20428;-70
2022/07/12 04:41:53;;;;;;;3.00;2.33;;;;;;;12.01;100.00;97033.09;5083417;28;20816;-70
2022/07/12 04:44:20;;;;;;;2.20;2.00;;;;;;;12.02;100.00;97044.47;5069589;28;20519;-70
2022/07/12 04:46:47;;;;;;;4.43;2.73;;;;;;;11.99;100.00;97031.84;5074739;28;20909;-70
2022/07/12 04:49:13;;;;;;;4.50;3.00;;;;;;;12.03;100.00;97033.56;5078811;28;20444;-70
2022/07/12 04:51:40;;;;;;;2.10;1.90;;;;;;;12.23;100.00;97060.47;5069251;28;20464;-71
2022/07/12 04:54:07;;;;;;;3.90;2.40;;;;;;;12.14;100.00;97042.72;5065994;28;20467;-72
2022/07/12 04:56:34;;;;;;;2.20;2.10;;;;;;;12.01;100.00;97048.22;5074264;28;20955;-71
2022/07/12 04:59:00;;;;;;;2.77;2.47;;;;;;;12.22;100.00;97061.56;5060759;28;20433;-71
2022/07/12 05:01:30;;;;;;;10.20;3.00;;;;;;;12.42;100.00;97056.34;5092635;28;20444;-71
2022/07/12 05:03:58;;;;;;;3.07;2.77;;;;;;;12.27;100.00;97074.63;5080113;28;20959;-71
2022/07/12 05:06:24;;;;;;;3.30;3.10;;;;;;;12.38;100.00;97054.63;5086190;28;21035;-71
2022/07/12 05:08:51;;;;;;;2.97;2.77;;;;;;;12.42;100.00;97055.56;5056541;28;20574;-71
2022/07/12 05:11:19;;;;;;;2.60;2.40;;;;;;;12.47;100.00;97075.81;5080449;28;20436;-71
2022/07/12 05:13:46;;;;;;;2.80;2.60;;;;;;;12.50;100.00;97067.22;5060506;28;20442;-71
2022/07/12 05:16:14;;;;;;;7.00;3.40;;;;;;;12.57;100.00;97055.00;5086783;28;20902;-71
2022/07/12 05:18:41;;;;;;;3.07;2.77;;;;;;;12.95;100.00;97078.03;5077725;28;20464;-71
2022/07/12 05:21:08;;;;;;;2.90;2.70;;;;;;;13.10;100.00;97079.34;5086091;28;20456;-71
2022/07/12 05:23:35;;;;;;;5.00;3.23;;;;;;;13.05;100.00;97061.72;5087688;28;20485;-71
2022/07/12 05:26:02;;;;;;;3.70;3.30;;;;;;;13.05;100.00;97060.94;5081443;28;20524;-71
2022/07/12 05:28:28;;;;;;;4.40;2.90;;;;;;;13.29;100.00;97083.13;5077270;28;20866;-71
2022/07/12 05:30:55;;;;;;;4.00;3.20;;;;;;;13.11;100.00;97059.66;5081792;28;20443;-71
2022/07/12 05:33:22;;;;;;;3.33;3.03;;;;;;;13.31;100.00;97075.59;5079560;28;20420;-71
2022/07/12 05:35:49;;;;;;;3.60;3.03;;;;;;;13.13;100.00;97098.06;5083933;28;20433;-71
2022/07/12 05:38:16;;;;;;;3.00;2.80;;;;;;;13.38;100.00;97079.63;5072488;28;20456;-71
2022/07/12 05:40:42;;;;;;;3.30;3.10;;;;;;;13.26;100.00;97093.63;5056053;28;20444;-71
2022/07/12 05:43:09;;;;;;;3.70;3.40;;;;;;;13.45;100.00;97101.91;5075077;28;20429;-72
2022/07/12 05:45:36;;;;;;;3.63;3.40;;;;;;;13.35;100.00;97081.03;5083162;28;20536;-71
2022/07/12 05:48:03;;;;;;;3.40;3.10;;;;;;;13.48;100.00;97103.91;5074640;28;20455;-71
2022/07/12 05:50:30;;;;;;;3.50;3.20;;;;;;;13.61;100.00;97105.50;5083278;28;20944;-71
2022/07/12 05:55:42;;;;;;;4.43;4.13;;;;;;;13.59;100.00;97099.75;5080272;28;20436;-71
2022/07/12 05:58:08;;;;;;;4.23;3.83;;;;;;;13.89;100.00;97089.78;5072023;28;21071;-71
2022/07/12 06:00:35;;;;;;;3.57;3.27;;;;;;;13.96;100.00;97080.50;5079378;28;20428;-71
2022/07/12 06:03:02;;;;;;;3.97;3.60;;;;;;;14.01;100.00;97104.97;5087014;28;20420;-71
2022/07/12 06:05:29;;;;;;;5.10;3.70;;;;;;;14.30;100.00;97105.94;5059743;28;20436;-71
2022/07/12 06:07:55;;;;;;;3.63;3.33;;;;;;;14.09;100.00;97098.03;5076488;28;20502;-71
2022/07/12 06:10:22;;;;;;;5.00;3.50;;;;;;;14.27;100.00;97111.91;5079934;28;20487;-71
2022/07/12 06:12:49;;;;;;;4.60;4.20;;;;;;;14.23;100.00;97092.41;5074338;28;20435;-71
2022/07/12 06:15:16;;;;;;;3.77;3.50;;;;;;;14.20;100.00;97089.28;5079261;28;20464;-71
2022/07/12 06:17:43;;;;;;;3.93;3.63;;;;;;;14.48;100.00;97104.66;5087046;28;20459;-71
2022/07/12 06:20:11;;;;;;;4.90;3.50;;;;;;;14.97;100.00;97121.41;5059436;28;20503;-72
2022/07/12 06:22:37;;;;;;;4.43;4.13;;;;;;;14.93;100.00;97114.41;5064733;28;20473;-71
2022/07/12 06:25:05;;;;;;;4.10;3.70;;;;;;;14.65;100.00;97115.06;5075400;28;20455;-71
2022/07/12 06:27:52;;;;;;;4.27;3.97;;;;;;;14.97;100.00;97121.41;5071514;28;20459;-72
2022/07/12 06:30:20;;;;;;;4.13;3.83;;;;;;;15.38;100.00;97119.53;5061645;28;20482;-71
2022/07/12 06:32:48;;;;;;;3.93;3.67;;;;;;;15.64;100.00;97119.16;5091854;28;21261;-71
2022/07/12 06:35:16;;;;;;;4.27;3.97;;;;;;;16.08;100.00;97119.19;5075187;28;20537;-71
2022/07/12 06:37:43;;;;;;;3.87;3.57;;;;;;;16.13;100.00;97094.91;5071887;28;20463;-71
2022/07/12 06:40:11;;;;;;;3.47;3.27;;;;;;;15.81;100.00;97099.41;5071664;28;20425;-72
2022/07/12 06:42:38;;;;;;;4.60;3.20;;;;;;;16.22;100.00;97106.19;5081868;28;20837;-72
2022/07/12 06:45:05;;;;;;;3.83;3.43;;;;;;;16.20;100.00;97111.88;5078128;28;20485;-72
2022/07/12 06:47:32;;;;;;;3.70;3.40;;;;;;;16.62;100.00;97115.94;5063195;28;20553;-72
2022/07/12 06:49:58;;;;;;;3.50;3.30;;;;;;;16.69;100.00;97116.13;5072667;28;20489;-72
2022/07/12 06:52:25;;;;;;;3.20;3.00;;;;;;;16.44;100.00;97126.19;5083694;28;20469;-72
2022/07/12 06:54:57;;;;;;;3.90;3.60;;;;;;;16.50;100.00;97119.47;5061974;28;20792;-72
2022/07/12 06:57:26;;;;;;;5.10;3.50;;;;;;;16.01;100.00;97135.75;5091272;28;20455;-72
2022/07/12 06:59:54;;;;;;;3.30;3.00;;;;;;;16.37;100.00;97131.34;5079213;28;20467;-72
2022/07/12 07:02:21;;;;;;;4.60;4.23;;;;;;;16.31;100.00;97140.75;5078792;28;20431;-72
2022/07/12 07:04:48;;;;;;;3.50;3.20;;;;;;;16.20;100.00;97111.88;5080854;28;20511;-71
2022/07/12 07:07:16;;;;;;;3.20;3.00;;;;;;;16.73;100.00;97136.47;5079846;28;20562;-72
2022/07/12 07:09:42;;;;;;;3.50;3.30;;;;;;;17.19;100.00;97136.72;5078890;28;20453;-72
2022/07/12 07:12:09;;;;;;;3.60;3.30;;;;;;;17.46;100.00;97142.25;5076735;28;20433;-72
2022/07/12 07:14:36;;;;;;;3.47;3.17;;;;;;;17.69;100.00;97148.50;5070847;28;20460;-72
2022/07/12 07:17:03;;;;;;;3.53;3.23;;;;;;;17.15;100.00;97117.16;5084358;28;20479;-72
2022/07/12 07:19:30;;;;;;;4.87;4.20;;;;;;;17.13;100.00;97152.25;5070878;28;20446;-72
2022/07/12 07:21:58;;;;;;;7.37;3.40;;;;;;;17.66;100.00;97127.78;5072292;28;20893;-72
2022/07/12 07:24:25;;;;;;;3.33;3.13;;;;;;;17.39;100.00;97113.47;5082263;28;20440;-71
2022/07/12 07:26:52;;;;;;;3.20;2.70;;;;;;;17.58;100.00;97155.50;5085458;28;20455;-72
2022/07/12 07:32:09;;;;;;;3.50;3.20;;;;;;;17.58;100.00;97152.81;5074153;28;20459;-72
2022/07/12 07:34:36;;;;;;;3.30;3.10;;;;;;;17.24;100.00;97125.78;5090742;28;20442;-72
2022/07/12 07:37:03;;;;;;;2.90;2.70;;;;;;;17.79;100.00;97145.25;5071838;28;20551;-72
2022/07/12 07:39:29;;;;;;;2.17;2.07;;;;;;;18.21;100.00;97136.47;5071637;28;20864;-72
2022/07/12 07:41:56;;;;;;;3.53;3.30;;;;;;;18.60;100.00;97143.28;5083969;28;20436;-72
2022/07/12 07:44:23;;;;;;;3.53;3.10;;;;;;;18.93;100.00;97136.53;5071522;28;20424;-72
2022/07/12 07:46:58;;;;;;;3.23;2.97;;;;;;;19.51;100.00;97128.13;5053661;28;20572;-72
2022/07/12 07:49:25;;;;;;;2.33;2.23;;;;;;;20.05;100.00;97132.22;5077626;28;20431;-72
2022/07/12 07:51:51;;;;;;;2.97;2.77;;;;;;;19.59;100.00;97155.84;5066576;28;20494;-72
2022/07/12 07:54:18;;;;;;;2.50;2.30;;;;;;;19.31;100.00;97162.34;5084168;28;20431;-72
2022/07/12 07:56:45;;;;;;;3.20;2.80;;;;;;;19.97;100.00;97158.22;5082949;28;20424;-72
2022/07/12 07:59:11;;;;;;;3.10;2.50;;;;;;;19.51;100.00;97171.06;5072110;28;20440;-72
2022/07/12 08:01:53;;;;;;;2.40;2.30;;;;;;;20.07;100.00;97180.97;5090663;28;20542;-72
2022/07/12 08:04:21;;;;;;;2.33;2.23;;;;;;;20.05;100.00;97151.81;5078121;28;20416;-72
2022/07/12 08:06:49;;;;;;;2.80;2.60;;;;;;;20.05;100.00;97162.53;5079432;28;21070;-72
2022/07/12 08:09:16;;;;;;;1.97;1.77;;;;;;;20.91;100.00;97169.47;5083461;28;20444;-72
2022/07/12 08:11:43;;;;;;;2.73;2.53;;;;;;;20.78;96.25;97144.03;5081147;28;20423;-72
2022/07/12 08:14:10;;;;;;;2.20;2.00;;;;;;;19.84;97.50;97156.91;5052067;28;20434;-72
2022/07/12 08:16:37;;;;;;;2.30;2.20;;;;;;;20.26;88.80;97155.81;5053225;28;20445;-72
2022/07/12 08:19:06;;;;;;;4.10;2.07;;;;;;;21.42;86.19;97159.84;5071351;28;20436;-72
2022/07/12 08:21:32;;;;;;;1.90;1.80;;;;;;;21.35;84.24;97160.56;5081740;28;20478;-72
2022/07/12 08:23:59;;;;;;;2.80;2.20;;;;;;;21.69;83.88;97155.00;5059518;28;20943;-72
2022/07/12 08:26:26;;;;;;;4.70;2.30;;;;;;;22.11;80.01;97138.22;5061275;28;20432;-72
2022/07/12 08:28:52;;;;;;;4.60;1.77;;;;;;;21.55;79.93;97161.06;5088738;28;20885;-72
2022/07/12 08:31:19;;;;;;;2.70;1.90;;;;;;;21.62;80.38;97155.72;5079209;28;20432;-72
2022/07/12 08:33:46;;;;;;;2.43;1.97;;;;;;;21.75;78.91;97170.38;5069944;28;20991;-72
2022/07/12 08:36:13;;;;;;;1.70;1.60;;;;;;;19.90;83.02;97151.97;5065126;28;20472;-72
2022/07/12 08:38:43;;;;;;;1.80;1.70;;;;;;;19.33;87.71;97130.56;5076248;28;20452;-72
2022/07/12 08:41:14;;;;;;;1.67;1.57;;;;;;;19.08;92.01;97126.78;5076994;28;20993;-72
2022/07/12 08:43:41;;;;;;;2.40;1.97;;;;;;;19.10;88.11;97152.13;5063104;28;20513;-72
2022/07/12 08:46:10;;;;;;;4.60;1.93;;;;;;;19.13;89.87;97145.25;5076360;28;20428;-72
2022/07/12 08:48:38;;;;;;;1.57;1.47;;;;;;;19.35;89.76;97148.97;5063596;28;20467;-72
2022/07/12 08:51:13;;;;;;;1.97;1.73;;;;;;;18.95;92.71;97138.84;5072416;28;20850;-72
2022/07/12 08:53:41;;;;;;;1.70;1.60;;;;;;;19.42;94.29;97141.81;5065986;28;20471;-72
2022/07/12 08:56:31;;;;;;;1.80;1.70;;;;;;;20.23;90.33;97129.72;5069422;28;20448;-72
2022/07/12 08:59:21;;;;;;;2.70;1.60;;;;;;;19.60;91.24;97136.69;5081306;28;20466;-72
2022/07/12 09:01:52;;;;;;;1.53;1.43;;;;;;;18.93;91.45;97147.25;5054482;28;20449;-72
2022/07/12 09:04:24;;;;;;;1.60;1.50;;;;;;;19.54;91.26;97132.75;5062024;28;20538;-72
2022/07/12 09:06:51;;;;;;;2.93;1.90;;;;;;;19.27;92.80;97145.44;5052637;28;20553;-72
2022/07/12 09:09:37;;;;;;;2.23;1.83;;;;;;;19.51;90.76;97154.19;5059910;28;20516;-72
2022/07/12 09:12:05;;;;;;;3.13;1.50;;;;;;;20.41;88.92;97130.63;5076735;28;20436;-72
2022/07/12 09:14:32;;;;;;;2.10;1.50;;;;;;;20.52;84.97;97163.78;5084327;28;20439;-72
2022/07/12 09:17:09;;;;;;;1.80;1.70;;;;;;;20.48;84.07;97129.97;5084137;28;20946;-72
2022/07/12 09:19:37;;;;;;;1.87;1.40;;;;;;;21.12;81.78;97117.78;5082714;28;20448;-72
2022/07/12 09:22:13;;;;;;;2.73;1.97;;;;;;;21.51;80.21;97158.38;5055990;28;20476;-72
2022/07/12 09:24:39;;;;;;;1.70;1.60;;;;;;;20.13;80.62;97152.63;5069434;28;21061;-72
2022/07/12 09:27:06;;;;;;;1.30;1.20;;;;;;;19.63;81.73;97151.28;5072396;28;20511;-72
2022/07/12 09:29:49;;;;;;;1.60;1.50;;;;;;;20.38;81.97;97156.34;5069296;28;20436;-72
2022/07/12 09:37:55;;;;;;;1.47;1.37;;;;;;;20.57;76.49;97139.28;5085381;28;20567;-72
2022/07/12 09:40:23;;;;;;;1.30;1.17;;;;;;;20.86;73.17;97161.78;5057140;28;20464;-72
2022/07/12 09:42:50;;;;;;;1.43;1.33;;;;;;;21.48;73.51;97156.41;5072788;28;20459;-72
2022/07/12 09:45:18;;;;;;;1.40;1.30;;;;;;;21.66;72.65;97126.91;5072542;28;20490;-73
2022/07/12 09:47:45;;;;;;;4.60;1.80;;;;;;;21.44;74.44;97142.19;5072416;28;20500;-73
2022/07/12 09:50:11;;;;;;;1.73;1.63;;;;;;;20.41;76.12;97138.69;5065713;28;20451;-73
2022/07/12 09:52:41;;;;;;;1.77;1.33;;;;;;;20.09;78.04;97138.41;5062486;28;20447;-72
2022/07/12 09:55:10;;;;;;;8.60;1.50;;;;;;;19.69;80.64;97157.88;5072380;28;20486;-72
2022/07/12 09:57:41;;;;;;;3.40;1.50;;;;;;;19.91;81.92;97150.88;5085893;28;20564;-73
2022/07/12 10:00:11;;;;;;;1.63;1.40;;;;;;;20.12;80.35;97128.84;5073730;28;20463;-73
2022/07/12 10:02:39;;;;;;;1.50;1.40;;;;;;;21.01;77.17;97151.13;5073685;28;20478;-72
2022/07/12 10:05:08;;;;;;;1.70;1.60;;;;;;;20.83;76.29;97135.66;5072198;28;20428;-72
2022/07/12 10:07:37;;;;;;;1.60;1.50;;;;;;;20.84;76.43;97121.06;5071986;28;20496;-73
2022/07/12 10:10:04;;;;;;;2.17;1.40;;;;;;;21.03;77.57;97152.28;5073550;28;20424;-72
2022/07/12 10:12:32;;;;;;;1.17;1.07;;;;;;;20.92;76.04;97128.00;5075290;28;20451;-72
2022/07/12 10:15:09;;;;;;;1.40;1.27;;;;;;;20.71;74.58;97119.03;5083508;28;20444;-72
2022/07/12 10:17:37;;;;;;;1.60;1.50;;;;;;;21.79;71.85;97132.72;5085583;28;20452;-73
2022/07/12 10:20:22;;;;;;;7.70;1.97;;;;;;;21.61;69.29;97148.78;5072050;28;20468;-72
2022/07/12 10:22:53;;;;;;;2.27;1.60;;;;;;;21.32;68.59;97114.81;5050805;28;20932;-72
2022/07/12 10:25:32;;;;;;;1.70;1.60;;;;;;;22.13;67.18;97149.38;5060183;28;20476;-73
2022/07/12 10:28:01;;;;;;;1.30;1.20;;;;;;;22.20;67.25;97148.66;5065032;28;20976;-73
2022/07/12 10:30:29;;;;;;;1.50;1.30;;;;;;;22.55;64.63;97147.91;5085387;28;20441;-73
2022/07/12 10:32:59;;;;;;;1.30;1.20;;;;;;;23.13;63.79;97152.16;5082630;28;20435;-73
2022/07/12 10:35:28;;;;;;;1.20;1.10;;;;;;;23.74;62.41;97155.47;5078260;28;20542;-73
2022/07/12 10:38:13;;;;;;;1.83;1.50;;;;;;;23.28;60.47;97151.75;5075110;28;20451;-73
2022/07/12 10:40:44;;;;;;;1.40;1.20;;;;;;;23.16;62.70;97152.16;5050990;28;20466;-73
2022/07/12 10:43:11;;;;;;;1.10;1.00;;;;;;;22.81;61.94;97144.06;5077573;28;20421;-73
2022/07/12 10:45:38;;;;;;;2.10;1.00;;;;;;;22.09;66.80;97144.00;5081662;28;21009;-73
2022/07/12 10:48:12;;;;;;;1.60;1.50;;;;;;;21.94;65.03;97130.84;5074893;28;20513;-72
2022/07/12 10:50:41;;;;;;;1.13;1.03;;;;;;;22.13;64.83;97141.31;5077267;28;20560;-73
2022/07/12 10:53:29;;;;;;;1.30;1.20;;;;;;;22.71;62.65;97135.59;5082872;28;20433;-73
2022/07/12 10:56:27;;;;;;;1.20;1.10;;;;;;;22.66;61.49;97151.38;5058055;28;20533;-73
2022/07/12 10:58:58;;;;;;;4.10;1.20;;;;;;;23.24;61.35;97136.72;5083656;28;20474;-73
2022/07/12 11:01:27;;;;;;;1.07;1.00;;;;;;;24.51;59.04;97148.13;5079085;28;20460;-73
2022/07/12 11:03:56;;;;;;;1.63;1.17;;;;;;;24.18;57.41;97144.84;5091319;28;20935;-73
2022/07/12 11:06:24;;;;;;;2.03;1.20;;;;;;;24.31;58.33;97155.25;5064461;28;20430;-73
2022/07/12 11:08:57;;;;;;;1.30;1.20;;;;;;;23.92;57.84;97150.03;5064962;28;21285;-73
2022/07/12 11:11:26;;;;;;;1.07;0.97;;;;;;;24.02;58.17;97151.88;5083295;28;20993;-73
2022/07/12 11:13:54;;;;;;;1.23;0.93;;;;;;;23.56;58.49;97142.78;5071129;28;20474;-73
2022/07/12 11:16:23;;;;;;;1.03;0.93;;;;;;;21.97;61.08;97141.63;5070878;28;20452;-73
2022/07/12 11:18:51;;;;;;;1.20;1.10;;;;;;;21.54;60.86;97136.09;5055972;28;20453;-73
2022/07/12 11:21:19;;;;;;;1.53;1.40;;;;;;;22.58;60.57;97107.47;5081403;28;20428;-73
2022/07/12 11:23:46;;;;;;;1.37;1.20;;;;;;;23.16;60.38;97106.28;5054255;28;20429;-73
2022/07/12 11:26:14;;;;;;;1.27;1.17;;;;;;;23.12;58.55;97140.59;5057627;28;20895;-73
2022/07/12 11:28:42;;;;;;;1.20;1.10;;;;;;;23.55;57.93;97130.44;5067238;28;20535;-73
2022/07/12 11:31:12;;;;;;;1.10;1.00;;;;;;;23.55;57.35;97138.56;5071590;28;20436;-73
2022/07/12 11:33:41;;;;;;;0.93;0.90;;;;;;;23.76;56.35;97135.00;5074173;28;20817;-73
2022/07/12 11:36:10;;;;;;;1.20;1.10;;;;;;;23.45;56.11;97135.88;5050444;28;20842;-72
2022/07/12 11:38:39;;;;;;;1.97;1.30;;;;;;;23.30;55.69;97121.66;5063695;28;20845;-73
2022/07/12 11:41:11;;;;;;;4.40;1.20;;;;;;;22.97;57.67;97112.09;5076862;28;20427;-73
2022/07/12 11:43:39;;;;;;;1.10;1.00;;;;;;;22.36;56.98;97108.63;5084379;28;20760;-73